Data for 07/23/2017

Time Sea-Level Adjusted Pressure Absolute Pressure Temperature Relative Humidity Dew Point   
(mb) (inHg) (mb) (inHg) (C) (F) (%) (C) (F)
00:05 1023 30.21 852 25.16 18.1 64.6 26 -1.7 29
00:10 1023 30.21 852 25.16 18.1 64.5 27 -1.2 29.8
00:15 1023 30.21 852 25.16 18.1 64.6 25 -2 28.3
00:20 1023 30.21 852 25.16 18.6 65.5 25 -1.7 29
00:25 1023 30.21 852 25.16 17.7 63.9 29 -0.5 31.1
00:30 1023 30.21 852 25.16 16.8 62.3 30 -0.5 31
00:35 1023 30.21 852 25.16 16.4 61.6 29 -1.5 29.3
00:40 1023 30.21 852 25.16 17.5 63.6 28 -0.8 30.5
00:45 1023 30.21 852 25.16 17.5 63.4 27 -1.4 29.5
00:50 1023 30.21 852 25.16 17.4 63.4 28 -1.1 30
00:55 1023 30.21 852 25.16 16.8 62.3 30 -0.6 31
01:00 1023 30.21 852 25.16 16.3 61.4 33 -0.1 31.9
01:05 1023 30.21 852 25.16 16 60.7 34 0.1 32.2
01:10 1023 30.21 852 25.16 15.5 60 35 0.3 32.5
01:15 1023 30.21 852 25.16 15.3 59.6 35 -0.1 31.9
01:20 1023 30.21 852 25.16 15.5 60 33 -0.5 31
01:25 1023 30.21 852 25.16 16 60.7 32 -0.7 30.7
01:30 1023 30.21 852 25.16 16.4 61.5 31 -0.5 31
01:35 1023 30.21 852 25.16 16.1 61 33 -0.1 31.8
01:40 1023 30.21 852 25.16 15.6 60.2 34 -0.1 31.8
01:45 1023 30.21 852 25.16 15.3 59.5 34 -0.3 31.5
01:50 1023 30.21 852 25.16 15.1 59.1 38 0.8 33.5
01:55 1023 30.21 852 25.16 14.9 58.8 35 -0.2 31.7
02:00 1023 30.21 852 25.16 15.4 59.8 34 -0.4 31.3
02:05 1023 30.21 852 25.16 15.5 59.8 33 -0.5 31.1
02:10 1023 30.21 852 25.16 15.4 59.6 33 -0.7 30.7
02:15 1023 30.21 852 25.16 15.6 60 34 -0.3 31.5
02:20 1023 30.21 852 25.16 15.4 59.6 35 0 32
02:25 1023 30.21 852 25.16 15.1 59.2 35 -0.1 31.8
02:30 1023 30.21 852 25.16 15 59 37 0.5 32.9
02:35 1023 30.21 852 25.16 14.5 58.1 38 0.3 32.6
02:40 1023 30.21 852 25.16 14.8 58.6 38 0.6 33.1
02:45 1023 30.21 852 25.16 15 58.9 38 0.8 33.4
02:50 1023 30.21 852 25.16 15.2 59.3 38 1 33.8
02:55 1023 30.21 852 25.16 15.1 59.3 39 1.5 34.7
03:00 1023 30.21 852 25.16 14.7 58.4 40 1.3 34.4
03:05 1023 30.21 852 25.16 14.6 58.4 39 1 33.8
03:10 1023 30.21 852 25.16 14.8 58.6 40 1.2 34.2
03:15 1023 30.21 852 25.16 14.7 58.5 39 1.1 34
03:20 1023 30.21 852 25.16 14.8 58.6 39 1.1 34
03:25 1023 30.21 852 25.16 14.9 58.7 38 0.7 33.3
03:30 1023 30.21 852 25.16 15.2 59.3 36 0.2 32.4
03:35 1023 30.21 852 25.16 15.4 59.7 36 0.4 32.8
03:40 1023 30.21 852 25.16 15.1 59.3 37 0.7 33.3
03:45 1023 30.21 852 25.16 14.8 58.6 38 0.9 33.5
03:50 1023 30.21 852 25.16 14.6 58.2 39 0.9 33.6
03:55 1023 30.21 852 25.16 14.6 58.3 38 0.4 32.6
04:00 1023 30.21 852 25.16 14.6 58.2 39 0.8 33.4
04:05 1023 30.21 852 25.16 15.1 59.2 35 -0.1 31.9
04:10 1023 30.21 852 25.16 15.3 59.5 37 0.7 33.3
04:15 1023 30.21 852 25.16 15 59 37 0.6 33
04:20 1023 30.21 852 25.16 14.9 58.8 37 0.3 32.6
04:25 1023 30.21 852 25.16 14.9 58.9 38 0.7 33.3
04:30 1023 30.21 852 25.16 14.8 58.6 38 0.5 33
04:35 1023 30.21 852 25.16 14.8 58.7 38 0.7 33.2
04:40 1023 30.21 852 25.16 14.6 58.2 40 1.3 34.3
04:45 1023 30.21 852 25.16 14.1 57.3 42 1.3 34.4
04:50 1023 30.21 852 25.16 13.7 56.7 42 1 33.8
04:55 1023 30.21 852 25.16 14.1 57.3 39 0.3 32.6
05:00 1023 30.21 852 25.16 14.5 58.1 38 0.6 33.1
05:05 1023 30.21 852 25.16 14.4 58 40 1 33.8
05:10 1023 30.21 852 25.16 14.3 57.8 38 0.2 32.3
05:15 1023 30.21 852 25.16 14.7 58.4 38 0.5 32.8
05:20 1023 30.21 852 25.16 14.6 58.3 37 0.3 32.6
05:25 1023 30.21 852 25.16 14.7 58.5 38 0.6 33
05:30 1023 30.21 852 25.16 14.7 58.4 38 0.5 32.8
05:35 1023 30.21 852 25.16 14.7 58.5 38 0.5 32.8
05:40 1023 30.21 852 25.16 14.7 58.5 37 0.5 32.8
05:45 1023 30.21 852 25.16 14.9 58.8 37 0.4 32.8
05:50 1023 30.21 852 25.16 14.9 58.9 38 0.8 33.5
05:55 1023 30.21 852 25.16 14.9 58.8 39 1 33.8
06:00 1023 30.21 852 25.16 15 58.9 38 0.8 33.4
06:05 1023 30.21 852 25.16 15.2 59.3 38 0.9 33.6
06:10 1023 30.21 852 25.16 15.4 59.7 37 0.9 33.7
06:15 1023 30.21 852 25.16 15.6 60 38 1.4 34.5
06:20 1023 30.21 852 25.16 15.9 60.5 35 0.6 33.1
06:25 1023 30.21 852 25.16 16.3 61.4 33 0.3 32.5
06:30 1023 30.21 852 25.16 16.6 61.8 35 1.1 33.9
06:35 1023 30.21 852 25.16 16.7 62 33 0.5 32.9
06:40 1023 30.21 852 25.16 16.8 62.2 37 2 35.6
06:45 1023 30.21 852 25.16 16.9 62.5 36 1.9 35.5
06:50 1023 30.21 852 25.16 17 62.7 37 2.4 36.3
06:55 1023 30.21 852 25.16 17.2 62.9 37 2.4 36.3
07:00 1023 30.21 852 25.16 17.4 63.3 36 2.2 36
07:05 1023 30.21 852 25.16 17.8 64.1 34 2 35.5
07:10 1023 30.21 852 25.16 18.1 64.6 33 1.7 35
07:15 1023 30.21 852 25.16 18.6 65.4 33 2 35.5
07:20 1023 30.21 852 25.16 18.9 66 34 2.8 37.1
07:25 1023 30.21 852 25.16 19.4 66.9 33 2.7 36.8
07:30 1023 30.21 852 25.16 20.1 68.1 31 2.8 37
07:35 1023 30.21 852 25.16 20.3 68.5 33 3.4 38.2
07:40 1023 30.21 852 25.16 20.1 68.2 33 3.6 38.4
07:45 1023 30.21 852 25.16 20.4 68.7 31 3.1 37.5
07:50 1023 30.21 852 25.16 21.1 69.9 31 3.3 37.9
07:55 1023 30.21 852 25.16 21.4 70.5 29 2.8 37
08:00 1022 30.18 852 25.16 21.9 71.4 29 3.2 37.8
08:05 1022 30.18 852 25.16 21.9 71.4 28 2.9 37.2
08:10 1022 30.18 852 25.16 22.4 72.3 29 3.5 38.2
08:15 1022 30.18 852 25.16 22.7 72.8 27 2.7 36.9
08:20 1022 30.18 851 25.13 22.8 73.1 28 3.6 38.4
08:25 1022 30.18 852 25.16 22.4 72.2 28 3.1 37.5
08:30 1022 30.18 852 25.16 22.3 72.1 29 3.6 38.5
08:35 1022 30.18 852 25.16 22.3 72.2 28 3.3 38
08:40 1022 30.18 851 25.13 22.6 72.7 27 2.8 37.1
08:45 1022 30.18 851 25.13 23.5 74.2 27 3.4 38.2
08:50 1022 30.18 851 25.13 23.7 74.7 28 4.2 39.5
08:55 1022 30.18 851 25.13 24 75.2 25 2.9 37.3
09:00 1022 30.18 851 25.13 24.4 75.9 25 3 37.5
09:05 1022 30.18 851 25.13 23.4 74.1 26 3.1 37.6
09:10 1022 30.18 851 25.13 24.1 75.3 24 2.4 36.3
09:15 1022 30.18 851 25.13 24.8 76.6 24 2.9 37.2
09:20 1022 30.18 851 25.13 25 76.9 24 3.1 37.7
09:25 1022 30.18 851 25.13 24.4 76 25 3.4 38.1
09:30 1022 30.18 851 25.13 23.7 74.6 26 3.2 37.8
09:35 1022 30.18 851 25.13 23.8 74.8 26 3.5 38.2
09:40 1022 30.18 851 25.13 24.1 75.3 26 3.5 38.2
09:45 1022 30.18 851 25.13 24.4 75.9 24 3 37.4
09:50 1022 30.18 851 25.13 24.7 76.4 24 3.2 37.8
09:55 1022 30.18 851 25.13 24.8 76.7 24 3.2 37.7
10:00 1022 30.18 851 25.13 25.6 78.1 24 3.9 39
10:05 1022 30.18 851 25.13 26.5 79.6 23 3.9 39
10:10 1021 30.15 851 25.13 26.9 80.5 22 3.6 38.4
10:15 1021 30.15 851 25.13 26.7 80.1 23 4.4 39.8
10:20 1021 30.15 851 25.13 26.3 79.3 22 3.4 38.2
10:25 1021 30.15 850 25.1 26.8 80.3 23 4 39.2
10:30 1021 30.15 850 25.1 26.1 79.1 24 4.2 39.5
10:35 1021 30.15 850 25.1 25.6 78.2 23 3.4 38.2
10:40 1021 30.15 850 25.1 27 80.5 21 3.3 37.9
10:45 1021 30.15 850 25.1 27.6 81.6 21 3.7 38.6
10:50 1021 30.15 850 25.1 27.1 80.7 22 3.7 38.7
10:55 1021 30.15 850 25.1 26.6 79.9 21 2.9 37.2
11:00 1021 30.15 850 25.1 26.9 80.5 21 2.9 37.2
11:05 1021 30.15 850 25.1 27.3 81.2 22 3.8 38.9
11:10 1021 30.15 850 25.1 27.5 81.6 22 4.3 39.7
11:15 1021 30.15 850 25.1 27.7 81.8 21 3.9 39
11:20 1021 30.15 850 25.1 28.1 82.6 20 3.3 38
11:25 1021 30.15 850 25.1 28 82.4 21 4.2 39.5
11:30 1021 30.15 850 25.1 27.2 80.9 22 4.1 39.3
11:35 1021 30.15 850 25.1 27.3 81.2 22 3.8 38.9
11:40 1021 30.15 850 25.1 27.3 81.1 22 3.9 39
11:45 1021 30.15 850 25.1 27.5 81.5 22 4.4 40
11:50 1020 30.12 850 25.1 27.7 81.9 21 3.7 38.7
11:55 1020 30.12 850 25.1 27.4 81.4 22 4.2 39.6
12:00 1020 30.12 849 25.07 26.4 79.5 23 4 39.1
12:05 1020 30.12 849 25.07 26.4 79.6 23 4.1 39.4
12:10 1020 30.12 849 25.07 27 80.7 22 3.6 38.5
12:15 1020 30.12 849 25.07 27.8 82 22 4.3 39.7
12:20 1020 30.12 849 25.07 28.5 83.3 20 4 39.2
12:25 1020 30.12 849 25.07 29.2 84.5 20 4.4 40
12:30 1020 30.12 849 25.07 29 84.1 20 3.9 39
12:35 1020 30.12 849 25.07 29.5 85.1 18 3.3 37.9
12:40 1020 30.12 849 25.07 29.4 84.9 20 4.3 39.8
12:45 1020 30.12 849 25.07 28.5 83.3 20 3.9 39
12:50 1020 30.12 849 25.07 28.4 83.2 20 3.4 38.2
12:55 1020 30.12 849 25.07 28.8 83.8 20 3.9 39
13:00 1020 30.12 849 25.07 30 86 18 3.3 38
13:05 1020 30.12 849 25.07 29.6 85.3 19 3.6 38.4
13:10 1019 30.09 849 25.07 30.1 86.1 18 3.2 37.7
13:15 1019 30.09 849 25.07 30.5 86.8 17 3.2 37.7
13:20 1019 30.09 849 25.07 30.3 86.5 17 3 37.4
13:25 1019 30.09 848 25.04 31 87.9 15 2 35.6
13:30 1019 30.09 848 25.04 31.2 88.2 16 3 37.4
13:35 1019 30.09 848 25.04 32.1 89.7 15 2.8 37
13:40 1019 30.09 848 25.04 32.4 90.3 15 2.7 36.9
13:45 1019 30.09 848 25.04 32.4 90.3 13 0.8 33.5
13:50 1019 30.09 848 25.04 30.9 87.7 14 1.2 34.1
13:55 1019 30.09 848 25.04 30.5 86.9 17 2.8 37
14:00 1019 30.09 848 25.04 30.8 87.4 15 1.7 35
14:05 1019 30.09 848 25.04 32.3 90.2 15 2.7 36.9
14:10 1018 30.06 848 25.04 32.8 91 15 3 37.4
14:15 1018 30.06 848 25.04 32.3 90.1 14 1.9 35.4
14:20 1018 30.06 848 25.04 31.9 89.5 15 2.3 36.2
14:25 1018 30.06 848 25.04 32.1 89.9 14 1.6 34.8
14:30 1018 30.06 848 25.04 32.3 90.2 14 1.8 35.2
14:35 1018 30.06 847 25.01 32.9 91.2 14 1.9 35.4
14:40 1018 30.06 847 25.01 33.3 92 13 1.2 34.2
14:45 1018 30.06 847 25.01 32.8 91 13 1.3 34.3
14:50 1018 30.06 847 25.01 32.9 91.2 13 1 33.9
14:55 1018 30.06 847 25.01 32.3 90.2 12 -0.3 31.4
15:00 1018 30.06 847 25.01 33.1 91.6 13 1.4 34.6
15:05 1018 30.06 847 25.01 33.2 91.7 16 4.6 40.2
15:10 1018 30.06 847 25.01 31 87.8 16 2.2 36
15:15 1018 30.06 847 25.01 31 87.9 15 1.7 35.1
15:20 1018 30.06 847 25.01 31.2 88.1 14 0.8 33.4
15:25 1018 30.06 847 25.01 31.2 88.1 14 1.3 34.3
15:30 1018 30.06 847 25.01 32.2 89.9 14 1.6 34.8
15:35 1018 30.06 847 25.01 32.5 90.4 14 1.6 34.9
15:40 1018 30.06 847 25.01 32.4 90.4 14 1.5 34.7
15:45 1017 30.03 847 25.01 32 89.6 12 -0.5 31.1
15:50 1017 30.03 847 25.01 31.5 88.7 12 -1.5 29.3
15:55 1017 30.03 846 24.98 31.4 88.5 11 -2.2 28
16:00 1017 30.03 846 24.98 31.5 88.7 11 -2.1 28.1
16:05 1017 30.03 846 24.98 32 89.6 11 -1.5 29.3
16:10 1017 30.03 846 24.98 32.2 90 10 -2.7 27.2
16:15 1017 30.03 846 24.98 31.7 89 11 -2.2 28.1
16:20 1017 30.03 846 24.98 32.2 89.9 12 -0.1 31.8
16:25 1017 30.03 846 24.98 32 89.5 13 0.5 32.9
16:30 1017 30.03 846 24.98 30.8 87.5 13 -0 32
16:35 1017 30.03 846 24.98 30.9 87.5 13 -0.3 31.5
16:40 1017 30.03 846 24.98 30.9 87.6 14 0.5 32.8
16:45 1017 30.03 846 24.98 30.8 87.4 13 -0.7 30.7
16:50 1017 30.03 846 24.98 30.8 87.4 13 -0.4 31.2
16:55 1017 30.03 846 24.98 30.6 87 13 -0.3 31.4
17:00 1017 30.03 846 24.98 30.6 87.1 13 -0.5 31
17:05 1017 30.03 846 24.98 30.9 87.7 13 -0.8 30.5
17:10 1017 30.03 846 24.98 30.7 87.3 13 -0.4 31.3
17:15 1017 30.03 846 24.98 30.7 87.3 12 -1.2 29.9
17:20 1017 30.03 846 24.98 31 87.7 13 -0.6 31
17:25 1017 30.03 846 24.98 31.1 88 12 -0.9 30.3
17:30 1016 30 846 24.98 31.1 87.9 12 -1 30.1
17:35 1016 30 846 24.98 31.1 87.9 13 -0.6 31
17:40 1016 30 846 24.98 31 87.9 13 0.1 32.2
17:45 1016 30 845 24.95 30.7 87.3 13 0 32.1
17:50 1016 30 845 24.95 30.7 87.3 14 0.1 32.2
17:55 1016 30 845 24.95 30.7 87.2 14 0.1 32.1
18:00 1016 30 845 24.95 30.3 86.6 14 0 32
18:05 1016 30 845 24.95 30.2 86.4 14 -0 32
18:10 1016 30 845 24.95 30.1 86.2 14 0.1 32.3
18:15 1016 30 845 24.95 30 86 15 0.5 32.8
18:20 1016 30 845 24.95 29.8 85.6 15 0.3 32.5
18:25 1016 30 845 24.95 29.6 85.2 15 0.1 32.2
18:30 1016 30 845 24.95 29.5 85.1 14 -0.5 31.2
18:35 1016 30 845 24.95 29.4 84.8 15 -0.1 31.9
18:40 1016 30 845 24.95 29.3 84.8 15 0.1 32.3
18:45 1016 30 845 24.95 29.2 84.5 15 0.1 32.3
18:50 1016 30 845 24.95 29.1 84.3 15 0.2 32.3
18:55 1016 30 845 24.95 28.9 84 15 0.1 32.2
19:00 1016 30 845 24.95 28.8 83.9 15 0.1 32.2
19:05 1016 30 845 24.95 28.7 83.6 15 -0.2 31.6
19:10 1016 30 845 24.95 28.6 83.4 15 -0.3 31.4
19:15 1016 30 845 24.95 28.4 83.1 15 0 32
19:20 1016 30 845 24.95 28.2 82.7 16 0.1 32.1
19:25 1016 30 845 24.95 27.9 82.3 16 0.2 32.4
19:30 1016 30 845 24.95 27.7 81.9 17 0.4 32.8
19:35 1016 30 845 24.95 27.6 81.7 17 0.4 32.7
19:40 1016 30 845 24.95 27.4 81.4 17 0.4 32.7
19:45 1016 30 845 24.95 27.2 80.9 17 0.5 33
19:50 1016 30 845 24.95 27 80.5 17 0.4 32.8
19:55 1016 30 845 24.95 26.9 80.4 17 0.4 32.8
20:00 1016 30 845 24.95 26.7 80 18 0.6 33.2
20:05 1016 30 845 24.95 26.5 79.7 18 0.7 33.3
20:10 1016 30 845 24.95 26.3 79.3 19 0.8 33.4
20:15 1016 30 845 24.95 26.2 79.2 19 0.7 33.3
20:20 1016 30 845 24.95 26.1 78.9 19 0.8 33.5
20:25 1016 30 845 24.95 26 78.9 19 0.9 33.7
20:30 1016 30 845 24.95 26 78.8 19 0.6 33.2
20:35 1016 30 845 24.95 26 78.8 19 0.7 33.3
20:40 1016 30 845 24.95 25.9 78.6 19 0.5 32.8
20:45 1016 30 845 24.95 25.9 78.5 19 0.6 33
20:50 1016 30 845 24.95 25.7 78.3 19 0.6 33.1
20:55 1016 30 845 24.95 25.6 78.1 20 1 33.8
21:00 1016 30 845 24.95 25.2 77.3 20 0.9 33.6
21:05 1016 30 845 24.95 24.9 76.8 21 1 33.8
21:10 1016 30 845 24.95 24.7 76.5 21 1.3 34.3
21:15 1016 30 845 24.95 24.6 76.2 22 1.6 34.9
21:20 1016 30 845 24.95 24.5 76.1 21 1.2 34.2
21:25 1016 30 846 24.98 24.2 75.6 22 1.3 34.3
21:30 1016 30 846 24.98 24.4 76 22 1.3 34.3
21:35 1016 30 846 24.98 24.1 75.4 23 1.9 35.4
21:40 1016 30 846 24.98 23.6 74.4 25 2.7 36.8
21:45 1016 30 846 24.98 23.2 73.8 24 1.9 35.5
21:50 1016 30 846 24.98 23 73.4 24 1.7 35.1
21:55 1016 30 845 24.95 23 73.4 23 1.3 34.3
22:00 1016 30 845 24.95 23 73.3 24 1.7 35.1
22:05 1016 30 845 24.95 22.7 72.9 24 1.3 34.3
22:10 1016 30 845 24.95 22.8 73.1 24 1.4 34.5
22:15 1016 30 845 24.95 23 73.3 23 1.1 33.9
22:20 1016 30 845 24.95 23.1 73.6 23 0.9 33.6
22:25 1016 30 845 24.95 23.1 73.6 23 1.4 34.4
22:30 1016 30 845 24.95 22.8 73 24 1.5 34.7
22:35 1016 30 845 24.95 22.4 72.3 25 1.6 34.9
22:40 1016 30 845 24.95 22.1 71.7 26 1.6 34.9
22:45 1016 30 845 24.95 21.9 71.5 25 1.1 34
22:50 1016 30 845 24.95 22.2 72 25 1.3 34.3
22:55 1016 30 845 24.95 22.1 71.8 24 1.1 33.9
23:00 1016 30 845 24.95 22.3 72.1 24 1 33.8
23:05 1016 30 845 24.95 22.3 72.2 25 1.8 35.3
23:10 1016 30 846 24.98 21.5 70.7 29 2.7 36.9
23:15 1016 30 846 24.98 20.6 69.1 28 1.8 35.3
23:20 1016 30 846 24.98 21.4 70.4 25 0.5 32.9
23:25 1016 30 846 24.98 21.8 71.3 26 1.6 34.9
23:30 1016 30 846 24.98 21.3 70.4 27 1.7 35
23:35 1016 30 846 24.98 21.4 70.4 26 1.1 34
23:40 1016 30 846 24.98 21.6 70.8 26 1.4 34.5
23:45 1017 30.03 846 24.98 21.2 70.2 27 1.7 35.1
23:50 1017 30.03 846 24.98 20.9 69.7 28 1.8 35.2
23:55 1017 30.03 846 24.98 21.1 70.1 27 1.3 34.4
24:00 1017 30.03 846 24.98 21.3 70.3 27 1.9 35.4